Time;durP1;ratioP1;P1;durP2;ratioP2;P2;SDS_P1;SDS_P2;PMS_P1;PMS_P2;Temp;Humidity;BMP_temperature;BMP_pressure;BME280_temperature;BME280_humidity;BME280_pressure;Samples;Min_cycle;Max_cycle;Signal;HPM_P1;HPM_P2
2021/09/20 00:01:38;;;;;;;1.90;1.80;;;;;;;18.04;57.30;95302.50;5011616;28;20029;-65
2021/09/20 00:04:04;;;;;;;2.47;2.00;;;;;;;16.63;60.67;95290.94;5009233;28;20092;-65
2021/09/20 00:06:29;;;;;;;2.03;1.88;;;;;;;16.56;62.28;95304.16;5009757;28;20027;-64
2021/09/20 00:08:55;;;;;;;2.10;2.00;;;;;;;16.34;62.35;95312.69;5009200;28;20074;-65
2021/09/20 00:11:20;;;;;;;2.05;1.95;;;;;;;16.24;62.88;95311.22;5009595;28;20032;-65
2021/09/20 00:13:46;;;;;;;2.38;2.22;;;;;;;16.46;62.13;95315.34;5010471;28;20142;-65
2021/09/20 00:16:12;;;;;;;2.10;2.00;;;;;;;16.35;62.38;95301.59;5009012;28;20092;-65
2021/09/20 00:18:37;;;;;;;2.85;2.30;;;;;;;16.77;61.15;95319.38;5009459;28;20628;-65
2021/09/20 00:21:03;;;;;;;2.63;2.42;;;;;;;16.64;61.38;95305.94;5009388;28;20536;-65
2021/09/20 00:23:28;;;;;;;2.63;2.42;;;;;;;16.96;60.28;95308.03;5008937;28;20077;-64
2021/09/20 00:25:54;;;;;;;2.60;2.40;;;;;;;16.05;63.02;95301.03;4993746;28;20072;-65
2021/09/20 00:28:20;;;;;;;2.60;2.30;;;;;;;16.24;62.92;95321.16;5008570;28;20515;-65
2021/09/20 00:30:45;;;;;;;2.50;2.30;;;;;;;15.91;63.67;95313.19;5008475;28;20124;-65
2021/09/20 00:33:11;;;;;;;2.70;2.50;;;;;;;16.43;61.97;95310.66;5009068;28;20381;-65
2021/09/20 00:35:37;;;;;;;2.60;2.40;;;;;;;17.13;59.76;95303.16;5009148;28;20038;-65
2021/09/20 00:38:03;;;;;;;2.70;2.50;;;;;;;16.55;61.31;95304.50;5011199;28;20037;-65
2021/09/20 00:40:30;;;;;;;2.97;2.70;;;;;;;16.25;62.18;95303.94;5007233;28;20105;-65
2021/09/20 00:42:55;;;;;;;2.83;2.30;;;;;;;15.98;63.43;95311.53;5008272;28;20030;-64
2021/09/20 00:45:21;;;;;;;2.40;2.20;;;;;;;16.00;63.31;95311.97;5008628;28;20041;-65
2021/09/20 00:47:46;;;;;;;2.80;2.60;;;;;;;16.36;62.85;95307.75;5008836;28;20046;-64
2021/09/20 00:50:13;;;;;;;2.67;2.47;;;;;;;16.72;61.28;95303.47;5008636;28;20025;-64
2021/09/20 00:52:39;;;;;;;2.53;2.33;;;;;;;16.62;60.89;95284.00;5010503;28;20659;-64
2021/09/20 00:55:06;;;;;;;3.03;2.83;;;;;;;16.57;61.21;95305.69;5008932;28;20045;-65
2021/09/20 00:57:32;;;;;;;2.88;2.40;;;;;;;17.19;59.26;95302.91;5008332;28;20046;-64
2021/09/20 00:59:58;;;;;;;2.78;2.38;;;;;;;17.42;58.81;95301.25;5007838;28;20050;-65
2021/09/20 01:02:23;;;;;;;2.53;2.38;;;;;;;16.98;60.00;95313.84;5008798;28;20030;-65
2021/09/20 01:04:49;;;;;;;2.25;2.15;;;;;;;17.94;57.74;95316.47;5010231;28;20562;-65
2021/09/20 01:07:14;;;;;;;2.70;2.50;;;;;;;17.07;59.46;95315.25;5008676;28;20123;-65
2021/09/20 01:09:44;;;;;;;3.35;3.10;;;;;;;17.19;59.08;95313.66;5008238;28;20045;-65
2021/09/20 01:12:10;;;;;;;3.15;2.92;;;;;;;17.12;59.95;95322.31;5008024;28;20045;-65
2021/09/20 01:14:37;;;;;;;4.60;4.30;;;;;;;16.71;60.31;95331.44;5007765;28;20080;-65
2021/09/20 01:17:03;;;;;;;4.50;4.20;;;;;;;16.01;63.16;95323.47;5010244;28;20128;-65
2021/09/20 01:19:29;;;;;;;4.45;4.15;;;;;;;16.62;61.26;95316.22;5007962;28;20046;-64
2021/09/20 01:22:01;;;;;;;4.60;4.07;;;;;;;15.85;63.40;95331.41;5008395;28;20040;-65
2021/09/20 01:24:27;;;;;;;4.97;4.55;;;;;;;16.71;61.37;95329.56;5008079;28;20060;-64
2021/09/20 01:26:59;;;;;;;5.00;4.50;;;;;;;16.46;61.58;95331.44;4991041;28;20056;-65
2021/09/20 01:29:24;;;;;;;4.75;4.45;;;;;;;16.74;60.56;95325.44;5007544;28;20037;-65
2021/09/20 01:31:50;;;;;;;4.25;3.95;;;;;;;16.27;62.66;95334.69;5010766;28;20463;-64
2021/09/20 01:34:15;;;;;;;4.22;3.88;;;;;;;16.63;61.08;95336.59;5008400;28;20046;-64
2021/09/20 01:36:40;;;;;;;4.22;3.92;;;;;;;15.99;63.39;95334.56;5008210;28;20062;-64
2021/09/20 01:39:18;;;;;;;3.95;3.33;;;;;;;15.91;62.92;95329.28;5007660;28;20038;-65
2021/09/20 01:41:46;;;;;;;3.30;3.10;;;;;;;16.43;61.20;95342.06;5008035;28;20480;-64
2021/09/20 01:44:11;;;;;;;3.35;3.10;;;;;;;17.17;59.44;95357.00;5007086;28;20093;-66
2021/09/20 01:46:36;;;;;;;3.85;3.65;;;;;;;16.45;61.50;95340.63;5009752;28;20498;-64
2021/09/20 01:49:02;;;;;;;3.70;3.47;;;;;;;15.86;63.51;95349.06;5007514;28;20053;-65
2021/09/20 01:51:28;;;;;;;3.65;3.40;;;;;;;16.49;61.62;95356.88;5008037;28;20030;-65
2021/09/20 01:53:53;;;;;;;3.20;2.90;;;;;;;16.72;60.67;95357.19;4989925;28;20635;-65
2021/09/20 01:56:19;;;;;;;3.95;3.17;;;;;;;16.49;61.57;95354.97;4990392;28;20057;-65
2021/09/20 01:58:44;;;;;;;3.35;3.05;;;;;;;16.57;61.27;95359.41;5008749;28;20058;-64
2021/09/20 02:01:10;;;;;;;6.22;3.25;;;;;;;16.33;62.23;95343.31;5007743;28;20443;-65
2021/09/20 02:03:35;;;;;;;4.25;2.90;;;;;;;16.66;60.91;95340.50;5007584;28;20041;-64
2021/09/20 02:06:01;;;;;;;3.75;3.00;;;;;;;16.74;60.54;95331.59;5007987;28;20038;-65
2021/09/20 02:08:26;;;;;;;3.20;3.00;;;;;;;16.66;60.79;95353.16;5007915;28;20109;-64
2021/09/20 02:10:52;;;;;;;4.22;3.35;;;;;;;17.13;59.37;95348.06;5009352;28;20072;-65
2021/09/20 02:13:17;;;;;;;3.88;3.45;;;;;;;16.29;62.40;95353.16;5006984;28;20041;-65
2021/09/20 02:15:42;;;;;;;4.07;3.78;;;;;;;16.60;61.25;95352.59;5007648;28;20049;-65
2021/09/20 02:18:08;;;;;;;4.15;3.75;;;;;;;16.96;60.19;95356.41;5007575;28;20049;-66
2021/09/20 02:20:33;;;;;;;4.85;3.78;;;;;;;16.78;60.49;95340.50;5007353;28;20054;-65
2021/09/20 02:22:58;;;;;;;4.80;4.40;;;;;;;16.27;62.45;95347.31;5009249;28;20109;-65
2021/09/20 02:25:24;;;;;;;4.68;4.15;;;;;;;16.98;60.44;95354.91;5007714;28;20499;-65
2021/09/20 02:27:49;;;;;;;5.82;4.18;;;;;;;16.00;62.94;95348.75;5007426;28;20062;-65
2021/09/20 02:30:15;;;;;;;5.53;4.40;;;;;;;15.97;63.40;95357.47;5006974;28;20045;-65
2021/09/20 02:32:41;;;;;;;4.78;4.38;;;;;;;16.14;63.07;95354.59;5007173;28;20137;-64
2021/09/20 02:35:07;;;;;;;5.03;4.18;;;;;;;16.86;60.58;95354.94;5009374;28;20030;-64
2021/09/20 02:37:33;;;;;;;5.90;4.90;;;;;;;16.78;60.50;95350.47;5007678;28;20069;-65
2021/09/20 02:39:58;;;;;;;5.22;4.72;;;;;;;17.11;59.78;95344.94;5008283;28;20034;-64
2021/09/20 02:42:24;;;;;;;6.28;5.07;;;;;;;16.80;60.68;95349.03;5009990;28;20034;-65
2021/09/20 02:44:49;;;;;;;5.53;4.80;;;;;;;16.99;60.03;95350.31;5010043;28;20056;-65
2021/09/20 02:47:15;;;;;;;5.20;4.70;;;;;;;16.54;61.87;95362.78;5010991;28;20061;-65
2021/09/20 02:49:40;;;;;;;5.43;5.00;;;;;;;17.10;60.45;95359.50;5012413;28;20032;-65
2021/09/20 02:52:06;;;;;;;5.65;5.15;;;;;;;16.37;62.46;95344.97;5011131;28;20045;-65
2021/09/20 02:54:31;;;;;;;6.15;5.35;;;;;;;16.44;62.61;95349.81;5010629;28;20038;-65
2021/09/20 02:56:56;;;;;;;5.50;5.10;;;;;;;16.86;61.22;95361.09;4993473;28;20044;-65
2021/09/20 02:59:22;;;;;;;5.72;4.80;;;;;;;15.93;63.97;95362.72;5009924;28;20057;-65
2021/09/20 03:01:47;;;;;;;6.53;6.03;;;;;;;16.26;63.52;95359.97;5013522;28;20028;-65
2021/09/20 03:04:13;;;;;;;6.53;5.95;;;;;;;15.80;65.37;95364.56;5011227;28;20089;-65
2021/09/20 03:06:38;;;;;;;6.63;6.03;;;;;;;16.08;64.17;95340.63;4994090;28;20042;-65
2021/09/20 03:09:03;;;;;;;8.02;6.95;;;;;;;16.67;62.76;95358.19;5010871;28;20077;-64
2021/09/20 03:11:29;;;;;;;9.10;6.53;;;;;;;16.27;64.36;95366.91;5010759;28;20077;-66
2021/09/20 03:13:54;;;;;;;10.00;7.13;;;;;;;16.01;64.79;95369.88;4987620;28;20023;-65
2021/09/20 03:16:19;;;;;;;7.70;7.03;;;;;;;16.32;64.01;95358.63;5009305;28;20046;-66
2021/09/20 03:18:45;;;;;;;7.93;7.13;;;;;;;16.49;63.63;95365.69;5010201;28;20697;-65
2021/09/20 03:21:10;;;;;;;7.35;6.65;;;;;;;16.17;64.51;95378.06;5010403;28;20030;-65
2021/09/20 03:23:36;;;;;;;8.75;7.50;;;;;;;15.94;65.01;95360.81;5010184;28;20749;-64
2021/09/20 03:26:01;;;;;;;7.85;7.15;;;;;;;15.64;66.20;95370.91;5012503;28;20030;-65
2021/09/20 03:28:26;;;;;;;8.40;7.55;;;;;;;16.02;65.24;95374.16;5009891;28;20068;-64
2021/09/20 03:30:52;;;;;;;8.88;8.02;;;;;;;16.10;65.15;95373.25;5009906;28;20426;-64
2021/09/20 03:33:17;;;;;;;8.95;8.13;;;;;;;16.11;65.24;95369.44;5010033;28;20042;-65
2021/09/20 03:35:43;;;;;;;9.02;7.45;;;;;;;16.82;62.84;95357.53;5010289;28;20046;-64
2021/09/20 03:38:08;;;;;;;8.55;7.53;;;;;;;17.39;60.68;95371.84;5009963;28;20022;-64
2021/09/20 03:40:34;;;;;;;9.15;8.25;;;;;;;17.82;60.04;95375.75;5011730;28;20407;-64
2021/09/20 03:42:59;;;;;;;12.65;11.52;;;;;;;16.37;61.36;95376.41;5009532;28;20037;-65
2021/09/20 03:45:25;;;;;;;13.70;12.60;;;;;;;16.69;59.32;95363.25;5009776;28;20053;-64
2021/09/20 03:47:50;;;;;;;14.85;13.43;;;;;;;17.20;58.80;95377.03;5009893;28;20111;-65
2021/09/20 03:50:15;;;;;;;16.88;15.18;;;;;;;17.13;58.46;95381.09;5009092;28;20034;-65
2021/09/20 03:52:44;;;;;;;16.70;15.20;;;;;;;16.78;59.09;95371.97;5011523;28;20021;-64
2021/09/20 03:55:12;;;;;;;16.83;15.43;;;;;;;16.81;59.10;95368.63;5009981;28;20630;-64
2021/09/20 03:57:37;;;;;;;17.35;15.75;;;;;;;16.71;58.80;95387.84;5009433;28;20664;-64
2021/09/20 04:00:04;;;;;;;17.35;15.77;;;;;;;16.57;59.65;95397.00;5009214;28;20057;-65
2021/09/20 04:02:30;;;;;;;17.23;15.57;;;;;;;16.30;60.63;95386.94;5009448;28;20042;-65
2021/09/20 04:04:55;;;;;;;17.90;15.70;;;;;;;16.73;59.90;95397.16;5011467;28;20028;-65
2021/09/20 04:07:20;;;;;;;18.00;16.38;;;;;;;17.15;58.41;95383.47;5009205;28;20073;-64
2021/09/20 04:09:46;;;;;;;17.80;16.02;;;;;;;17.05;58.49;95386.63;5009184;28;20117;-65
2021/09/20 04:12:12;;;;;;;17.75;15.43;;;;;;;17.26;57.43;95378.38;5009869;28;20684;-65
2021/09/20 04:14:38;;;;;;;18.23;16.33;;;;;;;17.55;56.88;95388.81;5008770;28;20514;-64
2021/09/20 04:17:05;;;;;;;17.58;15.93;;;;;;;17.94;56.44;95381.06;5011301;28;20037;-65
2021/09/20 04:19:31;;;;;;;17.70;15.77;;;;;;;17.82;55.74;95389.19;5001236;28;20026;-64
2021/09/20 04:21:56;;;;;;;19.58;17.67;;;;;;;18.17;55.58;95392.81;5009496;28;20403;-65
2021/09/20 04:24:22;;;;;;;19.77;17.67;;;;;;;18.26;54.93;95383.78;5008978;28;20048;-65
2021/09/20 04:26:47;;;;;;;17.92;16.20;;;;;;;18.30;54.70;95395.44;5009477;28;20129;-65
2021/09/20 04:29:12;;;;;;;18.23;16.42;;;;;;;18.79;54.16;95400.50;5008349;28;20104;-65
2021/09/20 04:31:38;;;;;;;18.15;15.98;;;;;;;18.64;53.79;95400.13;5011115;28;20656;-65
2021/09/20 04:34:03;;;;;;;16.25;14.70;;;;;;;18.90;53.57;95393.44;5008934;28;20080;-66
2021/09/20 04:36:29;;;;;;;16.80;15.40;;;;;;;19.24;52.97;95408.03;5009073;28;20484;-65
2021/09/20 04:38:54;;;;;;;16.33;14.82;;;;;;;19.37;52.36;95390.59;5008735;28;20061;-65
2021/09/20 04:41:19;;;;;;;17.67;16.00;;;;;;;19.54;52.13;95399.41;5008773;28;20026;-65
2021/09/20 04:43:45;;;;;;;16.52;15.10;;;;;;;19.62;51.80;95401.94;5010188;28;20061;-65
2021/09/20 04:46:10;;;;;;;17.40;15.82;;;;;;;19.60;51.31;95401.50;4990975;28;20045;-65
2021/09/20 04:48:36;;;;;;;17.05;15.55;;;;;;;19.66;51.01;95408.19;5008505;28;20046;-65
2021/09/20 04:51:01;;;;;;;17.35;15.77;;;;;;;19.68;50.81;95405.91;5008743;28;20108;-65
2021/09/20 04:53:27;;;;;;;16.65;15.15;;;;;;;19.49;50.65;95414.75;5008588;28;20088;-65
2021/09/20 04:55:52;;;;;;;16.98;15.43;;;;;;;19.48;49.97;95407.00;5010772;28;20464;-65
2021/09/20 04:58:18;;;;;;;16.27;14.82;;;;;;;19.57;49.94;95423.78;5006755;28;20635;-65
2021/09/20 05:00:43;;;;;;;15.73;14.38;;;;;;;19.63;49.99;95418.91;5007909;28;20046;-65
2021/09/20 05:03:09;;;;;;;14.38;13.07;;;;;;;19.52;49.43;95424.06;5007568;28;20125;-64
2021/09/20 05:05:35;;;;;;;14.95;13.70;;;;;;;19.55;49.22;95419.84;5008840;28;20114;-65
2021/09/20 05:08:00;;;;;;;15.70;14.30;;;;;;;19.58;49.00;95416.47;5010497;28;20034;-65
2021/09/20 05:10:26;;;;;;;15.57;14.27;;;;;;;19.72;49.05;95420.25;5008145;28;20088;-64
2021/09/20 05:12:51;;;;;;;15.65;14.23;;;;;;;19.77;48.64;95421.91;4990713;28;20485;-65
2021/09/20 05:15:17;;;;;;;14.95;13.75;;;;;;;19.88;48.33;95430.97;4990230;28;20046;-65
2021/09/20 05:17:44;;;;;;;15.60;14.13;;;;;;;19.94;48.09;95428.78;5008583;28;20050;-65
2021/09/20 05:20:11;;;;;;;15.38;14.18;;;;;;;19.99;48.14;95439.28;4992763;28;20056;-62
2021/09/20 05:22:36;;;;;;;14.57;13.38;;;;;;;20.04;48.18;95436.28;5009755;28;20022;-64
2021/09/20 05:25:03;;;;;;;14.52;13.32;;;;;;;20.00;48.45;95433.53;5008614;28;20115;-65
2021/09/20 05:27:29;;;;;;;15.88;14.13;;;;;;;20.12;48.69;95443.41;4991422;28;20492;-66
2021/09/20 05:29:59;;;;;;;15.38;14.00;;;;;;;20.18;48.92;95439.25;4981592;28;20092;-66
2021/09/20 05:32:25;;;;;;;14.77;13.57;;;;;;;20.19;48.09;95442.75;5007741;28;20030;-67
2021/09/20 05:34:51;;;;;;;15.38;13.88;;;;;;;20.17;47.93;95432.31;4992309;28;20400;-67
2021/09/20 05:37:16;;;;;;;15.57;14.18;;;;;;;20.20;47.91;95433.50;5007846;28;20030;-66
2021/09/20 05:39:42;;;;;;;16.38;14.73;;;;;;;20.00;48.41;95451.63;5004759;28;20665;-71
2021/09/20 05:42:07;;;;;;;16.73;15.13;;;;;;;19.29;50.00;95453.59;4988549;28;20537;-69
2021/09/20 05:44:33;;;;;;;22.42;15.82;;;;;;;17.87;54.02;95446.25;5007320;28;20072;-68
2021/09/20 05:46:58;;;;;;;17.02;15.40;;;;;;;17.41;56.15;95455.66;5009991;28;20026;-69
2021/09/20 05:49:24;;;;;;;18.00;16.35;;;;;;;17.81;55.35;95446.81;4997773;28;20395;-68
2021/09/20 05:51:58;;;;;;;19.30;16.95;;;;;;;17.82;55.71;95449.19;5007037;28;20121;-80
2021/09/20 05:54:24;;;;;;;18.67;16.88;;;;;;;17.46;56.58;95447.34;5007930;28;20045;-67
2021/09/20 05:56:49;;;;;;;19.60;17.67;;;;;;;18.11;55.61;95461.47;5007928;28;20204;-67
2021/09/20 05:59:15;;;;;;;19.27;17.25;;;;;;;18.60;54.63;95453.13;5006717;28;20022;-67
2021/09/20 06:01:40;;;;;;;18.73;16.88;;;;;;;18.83;53.70;95444.47;5009521;28;20025;-72
2021/09/20 06:04:06;;;;;;;19.45;17.52;;;;;;;19.23;52.92;95465.81;5007406;28;20146;-66
2021/09/20 06:06:31;;;;;;;17.10;15.55;;;;;;;19.46;52.25;95458.63;5008004;28;20037;-66
2021/09/20 06:08:56;;;;;;;19.20;17.42;;;;;;;19.67;51.50;95457.53;5007202;28;20076;-66
2021/09/20 06:11:22;;;;;;;19.90;17.85;;;;;;;19.83;50.72;95449.38;5007681;28;20045;-67
2021/09/20 06:13:47;;;;;;;19.52;17.42;;;;;;;19.96;50.58;95454.28;5006032;28;20045;-68
2021/09/20 06:16:14;;;;;;;19.48;17.50;;;;;;;19.95;50.15;95457.31;5007122;28;20424;-68
2021/09/20 06:18:39;;;;;;;19.02;17.30;;;;;;;19.51;50.62;95457.56;4990921;28;20042;-65
2021/09/20 06:21:05;;;;;;;19.23;16.58;;;;;;;18.99;52.30;95472.22;5007344;28;20045;-67
2021/09/20 06:23:30;;;;;;;17.60;15.88;;;;;;;18.33;54.04;95473.63;5007315;28;20053;-66
2021/09/20 06:25:56;;;;;;;17.80;15.88;;;;;;;17.55;55.87;95477.56;5009526;28;20029;-66
2021/09/20 06:28:21;;;;;;;17.25;15.57;;;;;;;18.02;55.68;95468.94;4989073;28;20575;-62
2021/09/20 06:30:47;;;;;;;21.25;16.40;;;;;;;18.10;55.12;95467.22;5006835;28;20123;-73
2021/09/20 06:33:12;;;;;;;19.58;17.52;;;;;;;17.98;54.76;95460.00;5007274;28;20098;-65
2021/09/20 06:35:39;;;;;;;20.17;18.17;;;;;;;18.31;55.34;95467.00;5007735;28;20041;-68
2021/09/20 06:38:05;;;;;;;20.70;18.65;;;;;;;18.15;55.39;95478.53;5008054;28;20120;-64
2021/09/20 06:40:31;;;;;;;20.92;18.73;;;;;;;18.35;55.18;95473.25;5006916;28;20141;-64
2021/09/20 06:42:57;;;;;;;18.50;16.73;;;;;;;18.24;55.94;95472.22;5006840;28;20137;-65
2021/09/20 06:45:23;;;;;;;16.55;15.05;;;;;;;18.38;54.99;95477.97;5006022;28;20128;-64
2021/09/20 06:47:48;;;;;;;19.05;17.25;;;;;;;18.40;54.58;95473.78;5006803;28;20125;-65
2021/09/20 06:50:14;;;;;;;19.55;17.48;;;;;;;18.38;54.08;95470.69;5006965;28;20379;-64
2021/09/20 06:52:40;;;;;;;23.67;18.52;;;;;;;18.06;54.18;95458.25;5008956;28;20033;-65
2021/09/20 06:55:06;;;;;;;18.10;16.23;;;;;;;18.35;54.47;95478.66;5007315;28;20066;-64
2021/09/20 06:57:32;;;;;;;28.10;19.55;;;;;;;17.67;55.50;95474.09;5007099;28;20042;-64
2021/09/20 06:59:57;;;;;;;21.15;16.67;;;;;;;17.64;55.25;95472.84;5006103;28;20045;-64
2021/09/20 07:02:23;;;;;;;20.95;18.73;;;;;;;17.96;54.64;95478.38;5007306;28;20022;-64
2021/09/20 07:04:48;;;;;;;22.65;18.17;;;;;;;18.09;54.63;95482.59;5008770;28;20069;-64
2021/09/20 07:07:17;;;;;;;19.08;17.38;;;;;;;18.42;54.03;95487.69;5007343;28;20524;-64
2021/09/20 07:09:43;;;;;;;17.75;16.05;;;;;;;18.61;53.34;95489.72;5007008;28;20060;-65
2021/09/20 07:12:08;;;;;;;23.60;16.52;;;;;;;18.49;51.97;95484.41;5007513;28;20391;-66
2021/09/20 07:14:34;;;;;;;18.15;16.50;;;;;;;18.99;51.85;95501.88;5006191;28;20042;-64
2021/09/20 07:16:59;;;;;;;16.20;14.80;;;;;;;19.15;50.46;95489.16;5008709;28;20493;-65
2021/09/20 07:19:24;;;;;;;16.58;14.98;;;;;;;19.42;50.02;95494.75;5006173;28;20046;-66
2021/09/20 07:21:50;;;;;;;14.38;13.18;;;;;;;19.40;49.08;95497.81;5006943;28;20034;-65
2021/09/20 07:24:15;;;;;;;15.90;14.27;;;;;;;19.61;48.99;95492.13;5006639;28;20426;-64
2021/09/20 07:26:41;;;;;;;14.73;13.18;;;;;;;19.63;47.88;95497.94;5009226;28;20157;-68
2021/09/20 07:29:07;;;;;;;14.40;12.93;;;;;;;19.77;47.90;95483.19;5008582;28;20026;-67
2021/09/20 07:31:33;;;;;;;14.55;13.13;;;;;;;19.80;47.10;95487.88;5010479;28;20030;-67
2021/09/20 07:33:58;;;;;;;15.30;13.95;;;;;;;19.98;46.95;95495.19;5009985;28;20048;-68
2021/09/20 07:36:23;;;;;;;16.98;12.65;;;;;;;19.96;46.24;95493.97;5010541;28;20069;-68
2021/09/20 07:38:49;;;;;;;17.55;12.90;;;;;;;20.18;46.51;95501.38;5009809;28;20053;-68
2021/09/20 07:41:15;;;;;;;15.57;13.15;;;;;;;19.40;47.71;95510.53;5009038;28;20025;-67
2021/09/20 07:43:44;;;;;;;15.70;14.20;;;;;;;19.77;47.33;95507.50;5011517;28;20037;-67
2021/09/20 07:46:11;;;;;;;14.18;12.57;;;;;;;19.99;47.22;95506.78;5009636;28;20048;-67
2021/09/20 07:48:37;;;;;;;14.30;12.95;;;;;;;20.06;46.64;95509.63;5009676;28;20108;-67
2021/09/20 07:51:02;;;;;;;14.85;13.68;;;;;;;19.90;46.81;95515.09;4996258;28;20046;-68
2021/09/20 07:53:27;;;;;;;16.17;14.57;;;;;;;18.28;51.17;95502.72;5010276;28;20124;-67
2021/09/20 07:55:53;;;;;;;23.65;17.17;;;;;;;18.09;53.77;95522.97;5012399;28;20037;-67
2021/09/20 07:58:18;;;;;;;28.98;20.25;;;;;;;17.44;55.91;95535.63;5010274;28;20044;-68
2021/09/20 08:00:44;;;;;;;60.97;29.08;;;;;;;18.00;56.31;95527.72;5008955;28;20077;-68
2021/09/20 08:03:10;;;;;;;65.93;32.10;;;;;;;17.74;55.46;95521.94;5009066;28;20419;-67
2021/09/20 08:05:37;;;;;;;83.75;34.28;;;;;;;17.39;57.41;95544.72;5009984;28;20034;-67
2021/09/20 08:08:03;;;;;;;103.07;38.17;;;;;;;17.18;59.51;95543.28;5011915;28;20022;-67
2021/09/20 08:10:29;;;;;;;123.55;43.85;;;;;;;17.37;58.76;95546.19;5009293;28;20129;-66
2021/09/20 08:12:55;;;;;;;117.47;43.50;;;;;;;17.90;59.18;95541.63;5009588;28;20113;-67
2021/09/20 08:15:21;;;;;;;125.25;45.13;;;;;;;18.18;58.79;95539.78;5008927;28;20096;-66
2021/09/20 08:17:47;;;;;;;117.07;43.08;;;;;;;18.54;58.18;95548.81;5009370;28;20068;-67
2021/09/20 08:20:13;;;;;;;101.47;39.45;;;;;;;18.56;57.22;95538.47;5008810;28;20034;-67
2021/09/20 08:22:39;;;;;;;86.20;39.17;;;;;;;18.96;57.04;95542.97;4993303;28;20025;-67
2021/09/20 08:25:05;;;;;;;73.88;35.08;;;;;;;19.20;57.51;95534.72;4991921;28;20499;-66
2021/09/20 08:27:31;;;;;;;83.18;35.38;;;;;;;19.07;56.31;95533.25;4991977;28;20121;-67
2021/09/20 08:29:56;;;;;;;83.13;34.20;;;;;;;19.25;56.55;95541.78;5008336;28;20572;-67
2021/09/20 08:32:22;;;;;;;67.45;31.95;;;;;;;19.26;54.43;95556.03;5008957;28;20026;-67
2021/09/20 08:34:47;;;;;;;62.15;31.70;;;;;;;19.77;56.94;95542.56;5001390;28;20020;-69
2021/09/20 08:37:13;;;;;;;60.88;32.13;;;;;;;20.31;56.43;95553.34;5008435;28;20077;-67
2021/09/20 08:39:38;;;;;;;53.92;28.80;;;;;;;20.50;54.66;95557.97;5009402;28;20407;-67
2021/09/20 08:42:04;;;;;;;40.67;25.05;;;;;;;20.94;54.48;95563.81;5009586;28;20049;-68
2021/09/20 08:44:30;;;;;;;46.83;27.05;;;;;;;21.14;53.77;95564.53;5008588;28;20124;-67
2021/09/20 08:46:56;;;;;;;37.33;23.63;;;;;;;21.42;53.88;95563.47;5010993;28;20463;-69
2021/09/20 08:49:24;;;;;;;33.25;21.08;;;;;;;21.80;53.76;95565.19;5008289;28;20046;-67
2021/09/20 08:51:51;;;;;;;18.80;16.55;;;;;;;22.14;53.19;95560.66;5009229;28;20053;-68
2021/09/20 08:54:17;;;;;;;20.33;18.23;;;;;;;22.38;51.76;95567.53;4991219;28;20046;-68
2021/09/20 08:56:43;;;;;;;20.05;16.48;;;;;;;22.64;51.80;95572.09;5009133;28;20133;-68
2021/09/20 08:59:08;;;;;;;17.63;16.08;;;;;;;22.81;50.63;95559.84;5007743;28;20061;-68
2021/09/20 09:01:35;;;;;;;17.15;15.55;;;;;;;23.12;50.52;95563.28;5010658;28;20444;-68
2021/09/20 09:04:22;;;;;;;17.92;16.35;;;;;;;23.34;49.50;95563.09;5008342;28;20049;-69
2021/09/20 09:07:09;;;;;;;17.33;15.73;;;;;;;23.50;47.91;95568.25;4989503;28;20034;-69
2021/09/20 09:09:38;;;;;;;16.98;15.52;;;;;;;23.68;47.89;95571.13;4988733;28;20038;-68
2021/09/20 09:12:24;;;;;;;14.52;13.38;;;;;;;23.85;47.47;95564.25;4989105;28;20049;-68
2021/09/20 09:14:51;;;;;;;14.05;12.88;;;;;;;23.98;47.03;95575.59;4995005;28;20496;-68
2021/09/20 09:17:23;;;;;;;15.63;14.43;;;;;;;23.97;46.28;95568.59;5008305;28;20057;-69
2021/09/20 09:19:54;;;;;;;13.95;12.77;;;;;;;24.16;45.79;95572.94;5009793;28;20034;-70
2021/09/20 09:22:22;;;;;;;13.15;12.05;;;;;;;24.37;45.30;95578.53;5008540;28;20092;-69
2021/09/20 09:25:01;;;;;;;25.17;13.25;;;;;;;24.52;43.26;95565.78;5007390;28;20046;-69
2021/09/20 09:27:28;;;;;;;11.55;10.55;;;;;;;24.58;42.81;95567.75;5008392;28;20034;-69
2021/09/20 09:30:09;;;;;;;11.27;10.20;;;;;;;24.54;41.63;95579.75;4989569;28;20598;-71
2021/09/20 09:32:35;;;;;;;11.48;10.57;;;;;;;24.56;41.75;95567.31;5000159;28;20060;-72
2021/09/20 09:35:03;;;;;;;11.35;10.45;;;;;;;24.74;41.96;95575.56;5010176;28;20466;-71
2021/09/20 09:37:29;;;;;;;12.60;10.68;;;;;;;24.63;41.84;95551.03;5008055;28;20053;-70
2021/09/20 09:40:21;;;;;;;11.75;10.85;;;;;;;24.87;40.62;95568.56;5007900;28;20761;-71
2021/09/20 09:42:49;;;;;;;11.00;10.20;;;;;;;24.96;41.79;95560.03;5007750;28;20049;-70
2021/09/20 09:45:26;;;;;;;10.85;10.00;;;;;;;25.20;39.95;95566.72;5007540;28;20034;-71
2021/09/20 09:48:06;;;;;;;10.60;9.68;;;;;;;25.51;39.80;95567.13;5007763;28;20046;-71
2021/09/20 09:50:32;;;;;;;8.30;7.60;;;;;;;25.72;38.39;95552.69;4999692;28;20037;-70
2021/09/20 09:52:57;;;;;;;8.82;8.23;;;;;;;26.07;38.82;95558.09;5009879;28;20025;-71
2021/09/20 09:55:25;;;;;;;8.68;8.07;;;;;;;26.15;38.14;95548.72;5006804;28;20038;-72
2021/09/20 09:57:52;;;;;;;6.90;6.40;;;;;;;26.15;36.05;95553.41;4988476;28;20068;-69
2021/09/20 10:00:20;;;;;;;6.93;6.43;;;;;;;26.36;35.84;95550.63;5004642;28;20097;-69
2021/09/20 10:02:48;;;;;;;7.35;6.63;;;;;;;26.56;35.26;95555.59;5007228;28;20064;-66
2021/09/20 10:05:14;;;;;;;8.30;7.50;;;;;;;26.32;34.67;95563.47;5007706;28;20062;-67
2021/09/20 10:07:46;;;;;;;7.90;7.30;;;;;;;26.56;36.16;95555.59;5009904;28;20631;-65
2021/09/20 10:10:14;;;;;;;8.07;7.47;;;;;;;26.39;35.08;95562.66;5006144;28;20396;-67
2021/09/20 10:12:42;;;;;;;8.75;8.07;;;;;;;26.30;35.68;95563.09;5007651;28;20730;-65
2021/09/20 10:15:14;;;;;;;7.78;7.13;;;;;;;26.25;35.60;95558.03;5007387;28;20038;-66
2021/09/20 10:17:39;;;;;;;7.45;6.85;;;;;;;26.12;34.93;95559.66;5007502;28;20042;-66
2021/09/20 10:20:14;;;;;;;8.20;7.70;;;;;;;26.23;35.92;95565.06;5009080;28;20487;-66
2021/09/20 10:22:40;;;;;;;7.72;7.13;;;;;;;26.44;35.93;95559.56;5006614;28;20045;-66
2021/09/20 10:25:08;;;;;;;7.63;7.03;;;;;;;26.69;35.50;95560.22;5006153;28;20499;-66
2021/09/20 10:27:34;;;;;;;7.35;6.70;;;;;;;27.03;35.22;95554.19;5006571;28;20038;-66
2021/09/20 10:30:18;;;;;;;7.55;6.88;;;;;;;26.87;33.41;95554.69;5006784;28;20072;-66
2021/09/20 10:32:50;;;;;;;7.93;7.28;;;;;;;27.01;34.10;95556.53;5001020;28;20057;-69
2021/09/20 10:35:25;;;;;;;7.68;7.07;;;;;;;27.27;34.32;95548.97;5007741;28;20061;-67
2021/09/20 10:37:53;;;;;;;8.48;7.85;;;;;;;27.29;33.15;95554.81;5009487;28;20022;-65
2021/09/20 10:40:19;;;;;;;7.22;6.63;;;;;;;27.48;32.13;95549.56;5007113;28;20041;-65
2021/09/20 10:42:56;;;;;;;7.35;6.70;;;;;;;27.20;32.68;95550.56;5007229;28;20046;-66
2021/09/20 10:45:37;;;;;;;7.10;6.60;;;;;;;27.40;33.43;95552.78;5006707;28;20042;-69
2021/09/20 10:48:15;;;;;;;7.63;7.03;;;;;;;27.56;32.53;95549.50;5007357;28;20041;-69
2021/09/20 10:50:57;;;;;;;8.02;7.43;;;;;;;27.79;32.96;95551.66;5000287;28;20042;-68
2021/09/20 10:53:33;;;;;;;7.70;7.10;;;;;;;27.33;32.20;95544.63;5007582;28;20018;-71
2021/09/20 10:56:01;;;;;;;8.20;7.50;;;;;;;27.11;32.14;95547.50;5009632;28;20053;-68
2021/09/20 10:58:27;;;;;;;8.52;7.93;;;;;;;26.53;32.14;95546.28;5006185;28;20040;-71
2021/09/20 11:01:11;;;;;;;8.48;7.68;;;;;;;24.32;35.74;95557.13;5007733;28;20044;-70
2021/09/20 11:03:48;;;;;;;8.77;8.18;;;;;;;24.29;35.82;95558.66;5010775;28;20037;-70
2021/09/20 11:06:23;;;;;;;7.97;7.28;;;;;;;24.79;35.68;95560.78;5010885;28;20045;-70
2021/09/20 11:08:57;;;;;;;8.15;7.45;;;;;;;24.90;36.27;95564.31;5010553;28;20556;-69
2021/09/20 11:11:39;;;;;;;8.63;7.68;;;;;;;24.91;36.29;95557.69;5011110;28;20040;-69
2021/09/20 11:14:16;;;;;;;7.70;6.97;;;;;;;24.86;36.30;95561.59;5012774;28;20033;-69
2021/09/20 11:17:00;;;;;;;7.97;7.38;;;;;;;24.96;36.72;95562.75;5010597;28;20065;-69
2021/09/20 11:19:29;;;;;;;8.40;7.70;;;;;;;25.01;36.52;95564.34;5010179;28;20048;-68
2021/09/20 11:22:21;;;;;;;8.30;7.70;;;;;;;24.64;36.51;95568.91;5010659;28;20145;-71
2021/09/20 11:24:50;;;;;;;8.60;7.80;;;;;;;24.55;35.50;95571.22;4975918;28;20709;-70